Lafe, Arkansas
Current Conditions -  °F | °C
As of 11:15 AM on Sunday 23 Nov 2014 (Local Time) from K4M9 Reporting Station
Heavy Rain Heavy Rain  
Wind Chill: 57°   Ceiling: 700
Heat Index: 57°   Visibility: 1.2mi
Dew Point: 57°   Wind: 15mph
Humidity: 100%   Direction: 130°SE
Pressure: 29.54"   Gusts: 21mph
Location:  36.2°N, 90.51°W
Report Text: K4M9 231715Z AUTO 13013G18KT 1 1/4SM +RA VV007 14/14 A2954 RMK AO2 P0011
Loading
Personal Weather Stations






























Interactive Weather Map New forecast layout! Learn more

10-Day Weather Forecast

Advertisements
Track Severe Weather on mobile